Time;durP1;ratioP1;P1;durP2;ratioP2;P2;SDS_P1;SDS_P2;PMS_P1;PMS_P2;Temp;Humidity;BMP_temperature;BMP_pressure;BME280_temperature;BME280_humidity;BME280_pressure;Samples;Min_cycle;Max_cycle;Signal;HPM_P1;HPM_P2
2022/12/05 00:01:29;;;;;;;41.78;27.35;;;4.30;99.90;;;;;;5040396;28;20071;-40
2022/12/05 00:03:57;;;;;;;43.03;26.80;;;4.30;99.90;;;;;;5040838;28;20072;-37
2022/12/05 00:06:24;;;;;;;54.17;32.63;;;4.30;99.90;;;;;;5041627;28;20110;-40
2022/12/05 00:08:50;;;;;;;55.53;33.60;;;4.30;99.90;;;;;;5040772;28;20057;-40
2022/12/05 00:11:20;;;;;;;51.10;30.63;;;4.30;99.90;;;;;;5041089;28;20210;-40
2022/12/05 00:13:47;;;;;;;51.33;30.25;;;4.30;99.90;;;;;;5041094;28;20488;-38
2022/12/05 00:16:15;;;;;;;50.15;30.35;;;4.30;99.90;;;;;;5039612;28;20060;-41
2022/12/05 00:18:41;;;;;;;56.72;33.90;;;4.30;99.90;;;;;;5040623;28;20029;-38
2022/12/05 00:21:12;;;;;;;53.85;30.52;;;4.30;99.90;;;;;;5039972;28;20021;-40
2022/12/05 00:23:37;;;;;;;48.67;30.08;;;4.30;99.90;;;;;;5040514;28;20104;-40
2022/12/05 00:26:04;;;;;;;55.47;31.50;;;4.20;99.90;;;;;;5041103;28;20025;-40
2022/12/05 00:28:30;;;;;;;48.78;28.92;;;4.30;99.90;;;;;;5040763;28;20068;-39
2022/12/05 00:30:56;;;;;;;47.95;28.33;;;4.30;99.90;;;;;;5040858;28;20106;-42
2022/12/05 00:33:22;;;;;;;45.85;28.45;;;4.30;99.90;;;;;;5041091;28;20414;-40
2022/12/05 00:35:47;;;;;;;48.80;29.95;;;4.30;99.90;;;;;;5043644;28;20032;-37
2022/12/05 00:38:13;;;;;;;51.10;30.08;;;4.30;99.90;;;;;;5043409;28;20045;-39
2022/12/05 00:40:38;;;;;;;53.28;30.55;;;4.30;99.90;;;;;;5044426;28;20067;-38
2022/12/05 00:43:04;;;;;;;50.88;31.17;;;4.30;99.90;;;;;;5043721;28;20116;-38
2022/12/05 00:45:29;;;;;;;52.00;31.65;;;4.30;99.90;;;;;;5044672;28;20074;-39
2022/12/05 00:47:55;;;;;;;50.47;29.50;;;4.30;99.90;;;;;;5044636;28;20025;-40
2022/12/05 00:50:20;;;;;;;50.47;29.70;;;4.30;99.90;;;;;;5043825;28;20673;-39
2022/12/05 00:52:46;;;;;;;43.55;27.13;;;4.30;99.90;;;;;;5044332;28;20102;-35
2022/12/05 00:55:11;;;;;;;49.47;28.55;;;4.30;99.90;;;;;;5044254;28;20099;-39
2022/12/05 00:57:37;;;;;;;47.65;27.23;;;4.30;99.90;;;;;;5043060;28;20443;-41
2022/12/05 01:00:04;;;;;;;47.42;27.88;;;4.30;99.90;;;;;;5043771;28;20598;-39
2022/12/05 01:02:30;;;;;;;51.35;30.13;;;4.30;99.90;;;;;;5043564;28;20025;-39
2022/12/05 01:04:55;;;;;;;54.20;30.70;;;4.30;99.90;;;;;;5043136;28;20094;-36
2022/12/05 01:07:21;;;;;;;52.25;30.23;;;4.30;99.90;;;;;;5043704;28;20396;-39
2022/12/05 01:09:46;;;;;;;48.20;29.13;;;4.30;99.90;;;;;;5043628;28;20480;-40
2022/12/05 01:12:12;;;;;;;49.72;29.77;;;4.30;99.90;;;;;;5042844;28;20039;-40
2022/12/05 01:14:37;;;;;;;45.55;26.67;;;4.30;99.90;;;;;;5043057;28;20061;-40
2022/12/05 01:17:03;;;;;;;46.88;28.30;;;4.40;99.90;;;;;;5043352;28;20024;-40
2022/12/05 01:19:30;;;;;;;43.22;27.02;;;4.30;99.90;;;;;;5042543;28;20043;-35
2022/12/05 01:21:57;;;;;;;49.58;28.77;;;4.30;99.90;;;;;;5043777;28;20103;-40
2022/12/05 01:24:23;;;;;;;46.78;27.88;;;4.40;99.90;;;;;;5043099;28;20036;-39
2022/12/05 01:26:49;;;;;;;50.10;29.67;;;4.40;99.90;;;;;;5043624;28;20020;-39
2022/12/05 01:29:17;;;;;;;44.50;27.50;;;4.40;99.90;;;;;;5043139;28;20036;-36
2022/12/05 01:31:43;;;;;;;45.33;26.92;;;4.40;99.90;;;;;;5043042;28;20040;-40
2022/12/05 01:34:11;;;;;;;55.47;30.00;;;4.40;99.90;;;;;;5043176;28;20037;-40
2022/12/05 01:36:38;;;;;;;46.67;27.38;;;4.40;99.90;;;;;;5043049;28;20150;-34
2022/12/05 01:39:04;;;;;;;48.55;29.02;;;4.40;99.90;;;;;;5042114;28;20045;-42
2022/12/05 01:41:32;;;;;;;44.90;26.70;;;4.40;99.90;;;;;;5042946;28;20108;-38
2022/12/05 01:43:58;;;;;;;42.63;26.92;;;4.40;99.90;;;;;;5042271;28;20082;-38
2022/12/05 01:46:25;;;;;;;46.60;28.15;;;4.40;99.90;;;;;;5042039;28;20029;-38
2022/12/05 01:48:56;;;;;;;47.03;28.88;;;4.50;99.90;;;;;;5043481;28;20025;-40
2022/12/05 01:51:23;;;;;;;46.95;29.02;;;4.40;99.90;;;;;;5043380;28;20132;-40
2022/12/05 01:53:49;;;;;;;47.67;27.88;;;4.40;99.90;;;;;;5041367;28;20037;-39
2022/12/05 01:56:15;;;;;;;49.72;28.17;;;4.50;99.90;;;;;;5042435;28;20016;-40
2022/12/05 01:58:43;;;;;;;48.88;28.85;;;4.50;99.90;;;;;;5042569;28;20111;-39
2022/12/05 02:01:12;;;;;;;43.83;26.70;;;4.50;99.90;;;;;;5041737;28;20033;-38
2022/12/05 02:03:39;;;;;;;45.58;27.33;;;4.50;99.90;;;;;;5042967;28;20033;-39
2022/12/05 02:06:05;;;;;;;44.90;27.33;;;4.50;99.90;;;;;;5041991;28;20037;-40
2022/12/05 02:08:34;;;;;;;40.05;25.55;;;4.50;99.90;;;;;;5042668;28;20150;-39
2022/12/05 02:11:00;;;;;;;45.75;26.15;;;4.50;99.90;;;;;;5042684;28;20079;-40
2022/12/05 02:13:57;;;;;;;44.03;25.75;;;4.50;99.90;;;;;;5042703;28;20049;-39
2022/12/05 02:16:51;;;;;;;42.13;25.25;;;4.50;99.90;;;;;;5043016;28;20029;-40
2022/12/05 02:19:16;;;;;;;43.47;27.08;;;4.50;99.90;;;;;;5042930;28;20090;-37
2022/12/05 02:22:10;;;;;;;44.47;26.30;;;4.50;99.90;;;;;;5041393;28;20153;-40
2022/12/05 02:24:59;;;;;;;39.22;23.23;;;4.50;99.90;;;;;;5042415;28;20025;-40
2022/12/05 02:27:34;;;;;;;43.15;26.23;;;4.50;99.90;;;;;;5043215;28;20032;-38
2022/12/05 02:30:04;;;;;;;38.92;24.13;;;4.60;99.90;;;;;;5042579;28;20140;-39
2022/12/05 02:32:53;;;;;;;43.55;26.05;;;4.60;99.90;;;;;;5042097;28;20072;-37
2022/12/05 02:35:57;;;;;;;41.95;25.55;;;4.60;99.90;;;;;;5041038;28;20051;-40
2022/12/05 02:38:26;;;;;;;41.95;26.13;;;4.60;99.90;;;;;;5033543;28;20053;-37
2022/12/05 02:41:04;;;;;;;41.35;25.75;;;4.60;99.90;;;;;;5042220;28;20036;-39
2022/12/05 02:44:11;;;;;;;43.92;25.67;;;4.60;99.90;;;;;;5032034;28;20032;-40
2022/12/05 02:46:39;;;;;;;40.78;24.65;;;4.60;99.90;;;;;;5038862;28;20149;-39
2022/12/05 02:49:09;;;;;;;38.38;24.15;;;4.60;99.90;;;;;;5041770;28;20064;-39
2022/12/05 02:51:40;;;;;;;35.67;23.25;;;4.60;99.90;;;;;;5042029;28;20408;-36
2022/12/05 02:54:10;;;;;;;43.83;26.30;;;4.70;99.90;;;;;;5041682;28;20033;-39
2022/12/05 02:56:36;;;;;;;40.40;25.48;;;4.70;99.90;;;;;;5040335;28;20550;-40
2022/12/05 02:59:02;;;;;;;39.55;24.35;;;4.70;99.90;;;;;;5041943;28;20100;-32
2022/12/05 03:01:31;;;;;;;42.47;26.02;;;4.70;99.90;;;;;;5041560;28;20441;-38
2022/12/05 03:04:00;;;;;;;41.38;24.77;;;4.70;99.90;;;;;;5041112;28;20029;-34
2022/12/05 03:06:33;;;;;;;43.95;26.13;;;4.70;99.90;;;;;;5042174;28;20121;-40
2022/12/05 03:09:12;;;;;;;41.83;26.23;;;4.70;99.90;;;;;;5041900;28;20211;-40
2022/12/05 03:11:57;;;;;;;39.25;23.95;;;4.70;99.90;;;;;;5040775;28;20053;-40
2022/12/05 03:14:27;;;;;;;43.35;26.10;;;4.80;99.90;;;;;;5031000;28;20072;-38
2022/12/05 03:16:59;;;;;;;41.33;25.25;;;4.80;99.90;;;;;;5040289;28;20521;-37
2022/12/05 03:19:48;;;;;;;38.53;24.70;;;4.80;99.90;;;;;;5041456;28;20037;-39
2022/12/05 03:22:31;;;;;;;37.75;23.95;;;4.80;99.90;;;;;;5041234;28;20023;-39
2022/12/05 03:24:58;;;;;;;44.20;25.55;;;4.80;99.90;;;;;;5031647;28;20094;-40
2022/12/05 03:27:34;;;;;;;42.75;24.67;;;4.80;99.90;;;;;;5041347;28;20534;-39
2022/12/05 03:30:15;;;;;;;37.05;24.30;;;4.80;99.90;;;;;;5031530;28;20464;-39
2022/12/05 03:33:02;;;;;;;39.08;24.77;;;4.80;99.90;;;;;;5039939;28;20021;-40
2022/12/05 03:35:39;;;;;;;38.67;23.05;;;4.80;99.90;;;;;;5041822;28;20136;-39
2022/12/05 03:38:11;;;;;;;38.80;24.02;;;4.80;99.90;;;;;;5040529;28;20413;-38
2022/12/05 03:40:46;;;;;;;39.33;23.88;;;4.80;99.90;;;;;;5041554;28;20039;-39
2022/12/05 03:43:41;;;;;;;38.03;23.85;;;4.80;99.90;;;;;;5040755;28;20481;-38
2022/12/05 03:46:13;;;;;;;34.78;21.02;;;4.80;99.90;;;;;;5040726;28;20036;-39
2022/12/05 03:48:54;;;;;;;38.95;23.90;;;4.80;99.90;;;;;;5041378;28;20096;-39
2022/12/05 03:51:24;;;;;;;42.05;24.95;;;4.80;99.90;;;;;;5040989;28;20025;-39
2022/12/05 03:54:04;;;;;;;39.03;24.58;;;4.80;99.90;;;;;;5039930;28;20472;-38
2022/12/05 03:56:35;;;;;;;37.05;23.42;;;4.80;99.90;;;;;;5041066;28;20033;-39
2022/12/05 03:59:29;;;;;;;34.90;22.65;;;4.80;99.90;;;;;;5040205;28;20025;-39
2022/12/05 04:01:57;;;;;;;33.67;21.35;;;4.80;99.90;;;;;;5041221;28;20032;-39
2022/12/05 04:04:33;;;;;;;34.28;21.88;;;4.80;99.90;;;;;;5041638;28;20050;-39
2022/12/05 04:07:03;;;;;;;30.50;20.63;;;4.90;99.90;;;;;;5040769;28;20036;-38
2022/12/05 04:09:42;;;;;;;35.35;21.85;;;4.90;99.90;;;;;;5043654;28;20025;-39
2022/12/05 04:12:13;;;;;;;34.72;21.67;;;4.90;99.90;;;;;;5044922;28;20033;-39
2022/12/05 04:14:42;;;;;;;33.80;22.73;;;4.90;99.90;;;;;;5043558;28;20253;-38
2022/12/05 04:17:50;;;;;;;33.67;21.90;;;4.90;99.90;;;;;;5045220;28;20031;-38
2022/12/05 04:23:25;;;;;;;32.65;21.13;;;5.00;99.90;;;;;;5024985;28;20095;-39
2022/12/05 04:26:08;;;;;;;34.78;22.20;;;4.90;99.90;;;;;;5042123;28;20104;-39
2022/12/05 04:28:57;;;;;;;;;;;4.90;99.90;;;;;;5044226;28;20155;-37
2022/12/05 04:31:34;;;;;;;33.10;21.17;;;4.90;99.90;;;;;;5043547;28;19909;-40
2022/12/05 04:34:05;;;;;;;32.53;21.23;;;4.90;99.90;;;;;;5045025;28;20036;-40
2022/12/05 04:36:33;;;;;;;34.55;21.35;;;4.90;99.90;;;;;;5042512;28;20127;-40
2022/12/05 04:39:08;;;;;;;29.92;20.10;;;4.90;99.90;;;;;;5044061;28;20469;-38
2022/12/05 04:41:39;;;;;;;32.08;21.05;;;4.90;99.90;;;;;;5043306;28;20106;-39
2022/12/05 04:44:09;;;;;;;30.08;19.65;;;4.90;99.90;;;;;;5040761;28;20433;-40
2022/12/05 04:46:38;;;;;;;31.15;20.42;;;4.90;99.90;;;;;;5042344;28;20108;-40
2022/12/05 04:49:08;;;;;;;29.80;20.35;;;4.90;99.90;;;;;;5044037;28;20040;-41
2022/12/05 04:51:35;;;;;;;31.42;20.38;;;5.00;99.90;;;;;;5043874;28;20059;-38
2022/12/05 04:54:08;;;;;;;30.77;20.40;;;5.00;99.90;;;;;;5024133;28;20090;-39
2022/12/05 04:56:36;;;;;;;27.98;18.63;;;5.00;99.90;;;;;;5037794;28;20037;-40
2022/12/05 04:59:03;;;;;;;29.23;19.17;;;5.00;99.90;;;;;;5044085;28;20032;-39
2022/12/05 05:01:36;;;;;;;27.50;19.13;;;5.00;99.90;;;;;;5044371;28;20025;-38
2022/12/05 05:04:12;;;;;;;28.42;19.23;;;5.00;99.90;;;;;;5043304;28;20033;-40
2022/12/05 05:06:38;;;;;;;24.90;16.73;;;5.00;99.90;;;;;;5043666;28;20028;-40
2022/12/05 05:09:05;;;;;;;32.95;20.23;;;5.00;99.90;;;;;;5043817;28;20033;-41
2022/12/05 05:11:32;;;;;;;29.67;19.88;;;5.00;99.90;;;;;;5043181;28;20107;-41
2022/12/05 05:13:58;;;;;;;28.35;18.92;;;5.00;99.90;;;;;;5042999;28;20849;-41
2022/12/05 05:16:32;;;;;;;27.15;18.10;;;5.10;99.90;;;;;;5043133;28;20102;-41
2022/12/05 05:18:58;;;;;;;25.70;18.10;;;5.10;99.90;;;;;;5043589;28;20039;-40
2022/12/05 05:21:29;;;;;;;23.58;17.02;;;5.10;99.90;;;;;;5042614;28;20025;-40
2022/12/05 05:23:55;;;;;;;26.67;18.65;;;5.10;99.90;;;;;;5043050;28;20032;-40
2022/12/05 05:26:21;;;;;;;31.05;20.00;;;5.10;99.90;;;;;;5043015;28;20028;-38
2022/12/05 05:28:47;;;;;;;29.98;20.30;;;5.10;99.90;;;;;;5043376;28;20529;-40
2022/12/05 05:31:13;;;;;;;28.00;19.17;;;5.10;99.90;;;;;;5042299;28;20032;-39
2022/12/05 05:33:39;;;;;;;28.55;18.33;;;5.10;99.90;;;;;;5042751;28;20055;-40
2022/12/05 05:36:10;;;;;;;27.60;18.83;;;5.10;99.90;;;;;;5043325;28;20487;-39
2022/12/05 05:38:42;;;;;;;26.58;18.48;;;5.20;99.90;;;;;;5041482;28;20041;-40
2022/12/05 05:41:16;;;;;;;25.10;17.15;;;5.20;99.90;;;;;;5043567;28;20083;-39
2022/12/05 05:43:41;;;;;;;25.20;17.02;;;5.20;99.90;;;;;;5043423;28;20032;-39
2022/12/05 05:46:08;;;;;;;29.17;19.17;;;5.20;99.90;;;;;;5042571;28;20033;-39
2022/12/05 05:48:33;;;;;;;27.58;18.70;;;5.20;99.90;;;;;;5043352;28;20135;-39
2022/12/05 05:51:01;;;;;;;26.27;17.90;;;5.20;99.90;;;;;;5044191;28;20131;-38
2022/12/05 05:53:27;;;;;;;25.65;17.08;;;5.20;99.90;;;;;;5042920;28;20033;-39
2022/12/05 05:55:53;;;;;;;25.05;17.48;;;5.20;99.90;;;;;;5043480;28;20041;-38
2022/12/05 05:58:18;;;;;;;25.48;17.40;;;5.20;99.90;;;;;;5043007;28;20029;-33
2022/12/05 06:00:44;;;;;;;27.58;19.33;;;5.20;99.90;;;;;;5042116;28;20102;-39
2022/12/05 06:03:09;;;;;;;28.30;18.83;;;5.30;99.90;;;;;;5043619;28;20063;-39
2022/12/05 06:05:35;;;;;;;28.48;19.48;;;5.30;99.90;;;;;;5042831;28;20214;-37
2022/12/05 06:08:00;;;;;;;27.63;18.08;;;5.30;99.90;;;;;;5042083;28;20608;-39
2022/12/05 06:10:26;;;;;;;26.55;18.00;;;5.30;99.90;;;;;;5043073;28;20054;-40
2022/12/05 06:12:52;;;;;;;25.15;17.88;;;5.20;99.90;;;;;;5042353;28;20477;-40
2022/12/05 06:15:17;;;;;;;25.55;18.17;;;5.30;99.90;;;;;;5042882;28;20515;-39
2022/12/05 06:17:43;;;;;;;25.90;18.13;;;5.30;99.90;;;;;;5042221;28;20064;-39
2022/12/05 06:20:08;;;;;;;22.80;16.77;;;5.30;99.90;;;;;;5041619;28;20103;-40
2022/12/05 06:22:34;;;;;;;23.02;16.60;;;5.30;99.90;;;;;;5041862;28;20029;-38
2022/12/05 06:24:59;;;;;;;26.48;17.60;;;5.30;99.90;;;;;;5041480;28;20036;-39
2022/12/05 06:27:28;;;;;;;24.70;17.50;;;5.30;99.90;;;;;;5042258;28;20036;-40
2022/12/05 06:29:54;;;;;;;24.95;17.15;;;5.30;99.90;;;;;;5041879;28;20052;-38
2022/12/05 06:32:19;;;;;;;28.98;20.20;;;5.30;99.90;;;;;;5042044;28;20104;-40
2022/12/05 06:34:45;;;;;;;29.90;20.23;;;5.30;99.90;;;;;;5041466;28;20039;-39
2022/12/05 06:37:10;;;;;;;27.35;19.60;;;5.30;99.90;;;;;;5042371;28;20040;-39
2022/12/05 06:39:36;;;;;;;26.45;19.42;;;5.30;99.90;;;;;;5042007;28;20122;-40
2022/12/05 06:42:01;;;;;;;26.38;19.35;;;5.30;99.90;;;;;;5039040;28;20029;-39
2022/12/05 06:44:27;;;;;;;25.67;17.80;;;5.30;99.90;;;;;;5042253;28;20104;-39
2022/12/05 06:46:53;;;;;;;23.25;17.20;;;5.30;99.90;;;;;;5041175;28;20381;-37
2022/12/05 06:49:20;;;;;;;24.95;18.63;;;5.30;99.90;;;;;;5040762;28;20037;-40
2022/12/05 06:51:45;;;;;;;25.80;18.48;;;5.30;99.90;;;;;;5041400;28;20044;-39
2022/12/05 06:54:12;;;;;;;23.70;17.02;;;5.30;99.90;;;;;;5041120;28;20747;-39
2022/12/05 06:56:38;;;;;;;23.73;17.23;;;5.40;99.90;;;;;;5039988;28;20021;-41
2022/12/05 06:59:03;;;;;;;28.42;18.75;;;5.30;99.90;;;;;;5040476;28;20056;-39
2022/12/05 07:01:39;;;;;;;25.55;17.77;;;5.40;99.90;;;;;;5037899;28;20060;-40
2022/12/05 07:04:08;;;;;;;25.85;18.38;;;5.40;99.90;;;;;;5040270;28;20029;-40
2022/12/05 07:06:34;;;;;;;25.90;18.15;;;5.30;99.90;;;;;;5040113;28;20024;-39
2022/12/05 07:09:00;;;;;;;23.50;18.23;;;5.40;99.90;;;;;;5040194;28;20025;-40
2022/12/05 07:11:26;;;;;;;25.30;17.58;;;5.40;99.90;;;;;;5040823;28;20021;-40
2022/12/05 07:13:51;;;;;;;25.63;17.75;;;5.40;99.90;;;;;;5041016;28;20117;-41
2022/12/05 07:16:17;;;;;;;27.42;18.75;;;5.40;99.90;;;;;;5039734;28;20013;-41
2022/12/05 07:18:43;;;;;;;28.38;20.10;;;5.40;99.90;;;;;;5040277;28;20480;-39
2022/12/05 07:21:12;;;;;;;25.38;19.05;;;5.40;99.90;;;;;;5040343;28;20059;-38
2022/12/05 07:23:38;;;;;;;23.55;17.83;;;5.40;99.90;;;;;;5040110;28;20028;-35
2022/12/05 07:26:08;;;;;;;26.85;18.50;;;5.40;99.90;;;;;;5038386;28;20385;-39
2022/12/05 07:28:34;;;;;;;24.05;17.17;;;5.40;99.90;;;;;;5040961;28;20056;-39
2022/12/05 07:31:04;;;;;;;23.75;17.52;;;5.40;99.90;;;;;;5040766;28;20112;-40
2022/12/05 07:33:30;;;;;;;21.27;16.08;;;5.40;99.90;;;;;;5040481;28;20086;-37
2022/12/05 07:36:04;;;;;;;22.15;16.27;;;5.40;99.90;;;;;;5040004;28;20013;-41
2022/12/05 07:38:29;;;;;;;23.33;16.95;;;5.40;99.90;;;;;;5040851;28;20041;-40
2022/12/05 07:40:55;;;;;;;25.38;18.60;;;5.40;99.90;;;;;;5040760;28;20025;-40
2022/12/05 07:43:21;;;;;;;25.33;17.27;;;5.40;99.90;;;;;;5041099;28;20174;-40
2022/12/05 07:45:46;;;;;;;23.23;16.30;;;5.40;99.90;;;;;;5040118;28;20104;-39
2022/12/05 07:48:12;;;;;;;20.67;14.82;;;5.50;99.90;;;;;;5040100;28;20100;-41
2022/12/05 07:50:37;;;;;;;22.23;16.17;;;5.40;99.90;;;;;;5040968;28;20429;-38
2022/12/05 07:53:03;;;;;;;22.42;16.15;;;5.50;99.90;;;;;;5040198;28;20021;-40
2022/12/05 07:55:28;;;;;;;21.63;16.48;;;5.50;99.90;;;;;;5040872;28;20772;-39
2022/12/05 07:57:54;;;;;;;19.90;15.18;;;5.50;99.90;;;;;;5040454;28;20036;-42
2022/12/05 08:00:20;;;;;;;18.20;14.18;;;5.50;99.90;;;;;;5040792;28;20017;-40
2022/12/05 08:02:46;;;;;;;18.95;14.38;;;5.50;99.90;;;;;;5041034;28;20064;-41
2022/12/05 08:05:11;;;;;;;17.98;13.70;;;5.50;99.90;;;;;;5039989;28;20120;-40
2022/12/05 08:07:37;;;;;;;19.63;14.25;;;5.50;99.90;;;;;;5040634;28;20115;-39
2022/12/05 08:10:03;;;;;;;20.00;15.23;;;5.50;99.90;;;;;;5040727;28;20079;-41
2022/12/05 08:12:29;;;;;;;19.00;14.20;;;5.50;99.90;;;;;;5039583;28;20323;-41
2022/12/05 08:14:54;;;;;;;21.95;15.57;;;5.60;99.90;;;;;;5040879;28;20849;-40
2022/12/05 08:17:20;;;;;;;19.73;15.07;;;5.50;99.90;;;;;;5040050;28;20025;-39
2022/12/05 08:19:45;;;;;;;21.25;15.82;;;5.60;99.90;;;;;;5039995;28;20056;-40
2022/12/05 08:22:11;;;;;;;24.48;17.38;;;5.60;99.90;;;;;;5040946;28;20021;-39
2022/12/05 08:24:36;;;;;;;21.67;16.60;;;5.60;99.90;;;;;;5041613;28;20053;-38
2022/12/05 08:27:05;;;;;;;21.48;16.15;;;5.60;99.90;;;;;;5039506;28;20059;-40
2022/12/05 08:29:31;;;;;;;21.13;15.77;;;5.60;99.90;;;;;;5040943;28;20021;-39
2022/12/05 08:31:57;;;;;;;22.00;15.68;;;5.50;99.90;;;;;;5040820;28;20831;-41
2022/12/05 08:34:23;;;;;;;20.58;15.57;;;5.60;99.90;;;;;;5039878;28;20033;-38
2022/12/05 08:36:49;;;;;;;21.80;15.45;;;5.60;99.90;;;;;;5040163;28;20017;-39
2022/12/05 08:39:16;;;;;;;22.40;16.55;;;5.60;99.90;;;;;;5040725;28;20083;-39
2022/12/05 08:41:43;;;;;;;24.42;16.98;;;5.60;99.90;;;;;;5040172;28;20021;-39
2022/12/05 08:44:15;;;;;;;22.77;16.20;;;5.60;99.90;;;;;;5040075;28;20053;-43
2022/12/05 08:46:44;;;;;;;20.70;15.70;;;5.60;99.90;;;;;;5039863;28;20029;-39
2022/12/05 08:49:10;;;;;;;23.48;15.82;;;5.70;99.90;;;;;;5038246;28;20041;-41
2022/12/05 08:51:36;;;;;;;23.20;16.95;;;5.70;99.90;;;;;;5040232;28;20036;-40
2022/12/05 08:54:03;;;;;;;25.52;18.13;;;5.70;99.90;;;;;;5040516;28;20037;-41
2022/12/05 08:56:31;;;;;;;21.98;16.33;;;5.70;99.90;;;;;;5041989;28;20029;-39
2022/12/05 08:58:58;;;;;;;27.80;19.63;;;5.70;99.90;;;;;;5044056;28;20106;-40
2022/12/05 09:01:29;;;;;;;28.88;19.27;;;5.70;99.90;;;;;;5043455;28;20040;-39
2022/12/05 09:03:55;;;;;;;24.95;18.17;;;5.70;99.90;;;;;;5043762;28;20028;-37
2022/12/05 09:06:23;;;;;;;25.15;17.70;;;5.70;99.90;;;;;;5043901;28;20393;-40
2022/12/05 09:08:52;;;;;;;28.75;19.27;;;5.70;99.90;;;;;;5043255;28;20095;-40
2022/12/05 09:11:24;;;;;;;25.65;17.88;;;5.70;99.90;;;;;;5033130;28;20119;-39
2022/12/05 09:13:51;;;;;;;25.92;18.25;;;5.70;99.90;;;;;;5043406;28;20903;-39
2022/12/05 09:16:19;;;;;;;25.92;17.48;;;5.70;99.90;;;;;;5043293;28;20428;-41
2022/12/05 09:18:46;;;;;;;27.75;18.10;;;5.70;99.90;;;;;;5043676;28;20091;-38
2022/12/05 09:21:15;;;;;;;24.70;17.92;;;5.70;99.90;;;;;;5043750;28;20083;-39
2022/12/05 09:23:41;;;;;;;27.52;18.35;;;5.70;99.90;;;;;;5041853;28;20039;-38
2022/12/05 09:26:10;;;;;;;26.02;17.88;;;5.80;99.90;;;;;;5042365;28;20025;-40
2022/12/05 09:28:36;;;;;;;27.35;18.52;;;5.80;99.90;;;;;;5043399;28;20033;-39
2022/12/05 09:31:05;;;;;;;29.25;18.98;;;5.80;99.90;;;;;;5042773;28;20826;-41
2022/12/05 09:33:33;;;;;;;25.80;19.02;;;5.80;99.90;;;;;;5043776;28;20032;-39
2022/12/05 09:36:01;;;;;;;31.75;19.85;;;5.80;99.90;;;;;;5042950;28;20040;-38
2022/12/05 09:38:26;;;;;;;28.55;19.33;;;5.80;99.90;;;;;;5042377;28;20068;-41
2022/12/05 09:41:10;;;;;;;27.40;17.95;;;5.80;99.90;;;;;;5042736;28;20036;-40
2022/12/05 09:44:02;;;;;;;29.45;18.95;;;5.80;99.90;;;;;;5043228;28;20136;-39
2022/12/05 09:47:22;;;;;;;27.08;17.60;;;5.90;99.90;;;;;;5043352;28;20052;-39
2022/12/05 09:49:54;;;;;;;29.65;18.90;;;5.80;99.90;;;;;;5020199;28;20041;-39
2022/12/05 09:52:37;;;;;;;28.90;18.50;;;5.80;99.90;;;;;;5038463;28;20041;-39
2022/12/05 09:55:16;;;;;;;27.77;17.48;;;5.90;99.90;;;;;;5042624;28;20072;-41
2022/12/05 09:58:02;;;;;;;26.40;16.80;;;5.90;99.90;;;;;;5042319;28;20104;-40
2022/12/05 10:00:29;;;;;;;26.42;17.30;;;5.90;99.90;;;;;;5042824;28;20025;-39
2022/12/05 10:03:07;;;;;;;24.80;16.73;;;5.90;99.90;;;;;;5041930;28;20029;-35
2022/12/05 10:05:47;;;;;;;28.10;16.58;;;5.90;99.90;;;;;;5041611;28;20061;-39
2022/12/05 10:08:22;;;;;;;25.88;16.77;;;5.90;99.90;;;;;;5031573;28;20032;-39
2022/12/05 10:11:27;;;;;;;26.67;17.02;;;6.00;99.90;;;;;;5042816;28;20029;-37
2022/12/05 10:14:05;;;;;;;25.75;16.70;;;6.00;99.90;;;;;;5034104;28;20040;-40
2022/12/05 10:16:36;;;;;;;24.95;16.08;;;6.00;99.90;;;;;;5042692;28;20021;-40
2022/12/05 10:19:11;;;;;;;24.33;15.90;;;6.00;99.90;;;;;;5041026;28;20561;-40
2022/12/05 10:21:58;;;;;;;27.38;17.13;;;6.00;99.90;;;;;;5042386;28;20389;-40
2022/12/05 10:24:46;;;;;;;25.40;16.45;;;6.00;99.90;;;;;;5043332;28;20098;-40
2022/12/05 10:27:18;;;;;;;25.08;15.98;;;6.10;99.90;;;;;;5041468;28;20059;-39
2022/12/05 10:29:56;;;;;;;24.10;15.88;;;6.10;99.90;;;;;;5042698;28;20358;-41
2022/12/05 10:32:35;;;;;;;27.10;16.42;;;6.10;99.90;;;;;;5042937;28;20024;-39
2022/12/05 10:35:15;;;;;;;24.23;15.48;;;6.10;99.90;;;;;;5041378;28;20068;-38
2022/12/05 10:37:46;;;;;;;23.67;15.73;;;6.10;99.90;;;;;;5042024;28;20049;-42
2022/12/05 10:40:12;;;;;;;24.88;16.13;;;6.10;99.90;;;;;;5041229;28;20086;-34
2022/12/05 10:42:41;;;;;;;26.13;16.45;;;6.20;99.90;;;;;;5041456;28;20027;-37
2022/12/05 10:45:22;;;;;;;25.27;16.60;;;6.20;99.90;;;;;;5042272;28;20036;-35
2022/12/05 10:47:52;;;;;;;23.88;15.27;;;6.20;99.90;;;;;;5040738;28;20112;-40
2022/12/05 10:50:30;;;;;;;24.20;15.50;;;6.20;99.90;;;;;;5040938;28;20033;-39
2022/12/05 10:52:57;;;;;;;22.88;15.93;;;6.20;99.90;;;;;;5042260;28;20031;-39
2022/12/05 10:55:28;;;;;;;24.73;15.52;;;6.20;99.90;;;;;;5041285;28;20579;-39
2022/12/05 10:58:08;;;;;;;24.63;15.73;;;6.20;99.90;;;;;;5041781;28;20111;-42
2022/12/05 11:00:33;;;;;;;22.67;15.77;;;6.30;99.90;;;;;;5041785;28;20033;-39
2022/12/05 11:03:03;;;;;;;22.92;14.77;;;6.30;99.90;;;;;;5040296;28;20020;-40
2022/12/05 11:05:34;;;;;;;23.48;14.65;;;6.30;99.90;;;;;;5040800;28;20052;-40
2022/12/05 11:07:59;;;;;;;23.95;15.13;;;6.30;99.90;;;;;;5040787;28;20048;-40
2022/12/05 11:10:36;;;;;;;21.73;14.48;;;6.40;99.90;;;;;;5043454;28;20100;-39
2022/12/05 11:13:15;;;;;;;21.50;13.73;;;6.40;99.90;;;;;;5055197;28;20104;-38
2022/12/05 11:15:45;;;;;;;21.80;14.55;;;6.40;99.90;;;;;;5039838;28;20029;-40
2022/12/05 11:18:32;;;;;;;20.38;13.75;;;6.40;99.90;;;;;;5040859;28;20033;-37
2022/12/05 11:21:12;;;;;;;20.73;13.95;;;6.40;99.90;;;;;;5041253;28;20033;-38
2022/12/05 11:23:39;;;;;;;19.27;13.38;;;6.40;99.90;;;;;;5041073;28;20083;-42
2022/12/05 11:26:31;;;;;;;19.65;13.70;;;6.50;99.90;;;;;;5041101;28;20047;-37
2022/12/05 11:28:56;;;;;;;20.98;13.98;;;6.40;99.90;;;;;;5041147;28;20082;-39
2022/12/05 11:31:27;;;;;;;20.15;13.95;;;6.50;99.90;;;;;;5040710;28;20415;-40
2022/12/05 11:34:27;;;;;;;21.95;14.63;;;6.50;99.90;;;;;;5041026;28;20809;-41
2022/12/05 11:37:01;;;;;;;19.77;13.57;;;6.50;99.90;;;;;;5040270;28;20061;-40
2022/12/05 11:39:27;;;;;;;20.02;13.38;;;6.50;99.90;;;;;;5041085;28;20104;-39
2022/12/05 11:42:28;;;;;;;20.48;13.85;;;6.40;99.90;;;;;;5041124;28;20197;-39
2022/12/05 11:45:11;;;;;;;18.95;13.15;;;6.50;99.90;;;;;;5039766;28;20036;-38
2022/12/05 11:48:15;;;;;;;18.05;13.60;;;6.50;99.90;;;;;;5040877;28;20487;-39
2022/12/05 11:51:04;;;;;;;20.45;13.65;;;6.40;99.90;;;;;;5036345;28;20033;-39
2022/12/05 11:53:50;;;;;;;19.83;13.18;;;6.50;99.90;;;;;;5041993;28;20032;-40
2022/12/05 11:56:35;;;;;;;18.58;13.77;;;6.50;99.90;;;;;;5040860;28;20047;-39
2022/12/05 11:59:19;;;;;;;19.08;13.18;;;6.50;99.90;;;;;;5040017;28;20021;-41
2022/12/05 12:01:54;;;;;;;19.45;13.20;;;6.50;99.90;;;;;;5038946;28;20726;-41
2022/12/05 12:04:49;;;;;;;19.85;13.75;;;6.50;99.90;;;;;;5040344;28;20105;-39
2022/12/05 12:07:41;;;;;;;19.38;13.35;;;6.40;99.90;;;;;;5031015;28;20021;-39
2022/12/05 12:10:39;;;;;;;17.40;12.60;;;6.40;99.90;;;;;;5040332;28;20025;-40
2022/12/05 12:13:14;;;;;;;16.90;11.68;;;6.40;99.90;;;;;;5039716;28;20834;-40
2022/12/05 12:16:04;;;;;;;15.10;11.52;;;6.40;99.90;;;;;;5040024;28;20032;-41
2022/12/05 12:19:01;;;;;;;15.48;11.35;;;6.40;99.90;;;;;;5039949;28;20492;-41
2022/12/05 12:21:36;;;;;;;13.00;10.75;;;6.40;99.90;;;;;;5040350;28;20036;-39
2022/12/05 12:24:37;;;;;;;13.32;11.40;;;6.40;99.90;;;;;;5020277;28;20037;-40
2022/12/05 12:27:31;;;;;;;13.40;10.70;;;6.30;99.90;;;;;;5039023;28;20047;-38
2022/12/05 12:30:20;;;;;;;12.82;10.55;;;6.30;99.90;;;;;;5041676;28;20033;-40
2022/12/05 12:33:04;;;;;;;12.18;10.40;;;6.30;99.90;;;;;;5042450;28;20025;-38
2022/12/05 12:35:37;;;;;;;10.60;9.35;;;6.30;99.90;;;;;;5044229;28;20045;-37
2022/12/05 12:38:08;;;;;;;;;;;6.20;99.90;;;;;;5044918;28;20056;-38
2022/12/05 12:40:53;;;;;;;10.02;8.93;;;6.20;99.90;;;;;;5043496;28;19920;-40
2022/12/05 12:43:28;;;;;;;10.30;9.13;;;6.20;99.90;;;;;;5033746;28;20063;-40
2022/12/05 12:46:28;;;;;;;9.98;8.77;;;6.20;99.90;;;;;;5044001;28;20056;-38
2022/12/05 12:49:09;;;;;;;9.32;8.27;;;6.20;99.90;;;;;;5036255;28;20041;-38
2022/12/05 12:51:42;;;;;;;9.57;8.18;;;6.20;99.90;;;;;;5044641;28;20056;-39
2022/12/05 12:54:29;;;;;;;9.13;8.23;;;6.20;99.90;;;;;;5043183;28;20075;-39
2022/12/05 12:57:03;;;;;;;11.15;9.13;;;6.20;99.90;;;;;;5043530;28;20021;-39
2022/12/05 12:59:58;;;;;;;11.77;9.30;;;6.20;99.90;;;;;;5044880;28;20163;-38
2022/12/05 13:02:45;;;;;;;9.18;7.90;;;6.20;99.90;;;;;;5043561;28;20048;-40
2022/12/05 13:05:30;;;;;;;9.75;8.48;;;6.20;99.90;;;;;;5043257;28;20682;-40
2022/12/05 13:08:03;;;;;;;9.93;8.35;;;6.20;99.90;;;;;;5043129;28;20059;-39